Time;durP1;ratioP1;P1;durP2;ratioP2;P2;SDS_P1;SDS_P2;PMS_P1;PMS_P2;Temp;Humidity;BMP_temperature;BMP_pressure;BME280_temperature;BME280_humidity;BME280_pressure;Samples;Min_cycle;Max_cycle;Signal;HPM_P1;HPM_P2
2022/03/02 00:01:31;;;;;;;16.80;14.52;;;2.90;52.60;;;;;;5095193;28;20214;-57
2022/03/02 00:03:58;;;;;;;17.95;14.00;;;3.00;52.10;;;;;;5095038;28;20322;-57
2022/03/02 00:06:25;;;;;;;15.35;13.75;;;3.10;51.80;;;;;;5093846;28;20204;-57
2022/03/02 00:08:52;;;;;;;14.60;13.10;;;3.10;51.50;;;;;;5094850;28;20548;-57
2022/03/02 00:11:18;;;;;;;14.07;12.77;;;3.20;51.50;;;;;;5094898;28;20242;-57
2022/03/02 00:13:45;;;;;;;16.75;15.05;;;3.20;51.90;;;;;;5095064;28;20211;-58
2022/03/02 00:16:13;;;;;;;16.25;14.23;;;3.20;51.90;;;;;;5094886;28;20324;-57
2022/03/02 00:18:41;;;;;;;19.42;14.07;;;3.10;52.50;;;;;;5094708;28;20288;-57
2022/03/02 00:21:08;;;;;;;15.82;14.00;;;3.10;52.20;;;;;;5093624;28;20287;-57
2022/03/02 00:23:35;;;;;;;19.10;14.20;;;3.20;52.50;;;;;;5093917;28;20308;-56
2022/03/02 00:26:02;;;;;;;16.63;14.45;;;3.10;52.50;;;;;;5094595;28;20247;-57
2022/03/02 00:28:29;;;;;;;21.75;14.30;;;3.10;52.50;;;;;;5094670;28;20608;-57
2022/03/02 00:30:56;;;;;;;17.40;13.45;;;3.10;52.10;;;;;;5094571;28;20688;-57
2022/03/02 00:33:23;;;;;;;14.27;12.85;;;3.10;51.50;;;;;;5094549;28;20540;-57
2022/03/02 00:35:51;;;;;;;15.48;13.88;;;3.10;52.40;;;;;;5093142;28;20270;-57
2022/03/02 00:38:18;;;;;;;15.15;13.15;;;3.20;52.20;;;;;;5094475;28;20210;-57
2022/03/02 00:40:45;;;;;;;15.93;12.77;;;3.30;52.20;;;;;;5094285;28;20287;-57
2022/03/02 00:43:12;;;;;;;14.18;12.55;;;3.40;52.60;;;;;;5094453;28;20231;-56
2022/03/02 00:45:39;;;;;;;16.02;13.30;;;3.50;51.80;;;;;;5094407;28;20306;-57
2022/03/02 00:48:07;;;;;;;14.13;12.77;;;3.60;51.00;;;;;;5094258;28;20230;-57
2022/03/02 00:50:35;;;;;;;15.13;13.15;;;3.70;50.70;;;;;;5093011;28;20677;-57
2022/03/02 00:53:05;;;;;;;15.15;12.45;;;3.70;50.60;;;;;;5094103;28;20207;-57
2022/03/02 00:55:33;;;;;;;14.50;13.10;;;3.70;51.30;;;;;;5093925;28;20308;-57
2022/03/02 00:58:00;;;;;;;15.82;13.05;;;3.80;50.70;;;;;;5094128;28;20204;-57
2022/03/02 01:00:27;;;;;;;17.08;14.80;;;3.70;51.50;;;;;;5094047;28;20214;-57
2022/03/02 01:02:54;;;;;;;15.70;13.65;;;3.60;51.40;;;;;;5093893;28;20214;-57
2022/03/02 01:05:21;;;;;;;17.25;13.50;;;3.40;52.20;;;;;;5092629;28;20204;-57
2022/03/02 01:07:48;;;;;;;17.40;14.60;;;3.40;52.50;;;;;;5093764;28;20210;-57
2022/03/02 01:10:17;;;;;;;15.73;13.68;;;3.50;52.00;;;;;;5093667;28;20206;-57
2022/03/02 01:12:44;;;;;;;18.30;14.55;;;3.50;51.60;;;;;;5094028;28;20204;-57
2022/03/02 01:15:12;;;;;;;14.75;13.25;;;3.50;51.60;;;;;;5093880;28;20314;-57
2022/03/02 01:17:39;;;;;;;16.52;13.73;;;3.60;51.00;;;;;;5093744;28;20208;-57
2022/03/02 01:20:09;;;;;;;15.15;13.63;;;3.60;51.10;;;;;;5092950;28;20207;-56
2022/03/02 01:22:36;;;;;;;16.13;14.15;;;3.60;51.50;;;;;;5093587;28;20247;-57
2022/03/02 01:25:04;;;;;;;14.57;13.15;;;3.50;51.60;;;;;;5093453;28;20204;-56
2022/03/02 01:27:33;;;;;;;14.13;12.75;;;3.50;51.30;;;;;;5093428;28;20762;-57
2022/03/02 01:30:00;;;;;;;14.50;13.00;;;3.50;51.40;;;;;;5093422;28;20206;-56
2022/03/02 01:32:26;;;;;;;16.92;13.50;;;3.40;51.50;;;;;;5093479;28;20239;-56
2022/03/02 01:34:53;;;;;;;14.38;12.88;;;3.40;51.30;;;;;;5090899;28;20228;-56
2022/03/02 01:37:20;;;;;;;14.27;12.77;;;3.40;51.40;;;;;;5093445;28;20222;-57
2022/03/02 01:39:48;;;;;;;17.75;13.63;;;3.40;51.40;;;;;;5093320;28;20247;-56
2022/03/02 01:42:15;;;;;;;15.40;13.55;;;3.40;51.20;;;;;;5093422;28;20278;-57
2022/03/02 01:44:44;;;;;;;14.80;13.30;;;3.40;50.80;;;;;;5093341;28;20571;-56
2022/03/02 01:47:10;;;;;;;17.85;12.43;;;3.50;51.20;;;;;;5093131;28;20564;-56
2022/03/02 01:49:37;;;;;;;16.30;12.95;;;3.50;50.80;;;;;;5092212;28;20196;-56
2022/03/02 01:52:05;;;;;;;15.18;13.48;;;3.40;51.00;;;;;;5093175;28;20200;-56
2022/03/02 01:54:31;;;;;;;17.23;13.45;;;3.30;51.30;;;;;;5093021;28;20488;-56
2022/03/02 01:56:58;;;;;;;14.48;12.98;;;3.20;51.20;;;;;;5092930;28;20666;-57
2022/03/02 01:59:26;;;;;;;15.02;13.75;;;3.20;51.80;;;;;;5092943;28;20558;-56
2022/03/02 02:01:54;;;;;;;14.27;12.77;;;3.20;51.60;;;;;;5092842;28;20646;-57
2022/03/02 02:04:22;;;;;;;16.00;13.82;;;3.20;51.30;;;;;;5092794;28;20258;-57
2022/03/02 02:06:49;;;;;;;16.65;14.02;;;3.20;51.80;;;;;;5091612;28;20208;-57
2022/03/02 02:09:16;;;;;;;16.75;13.90;;;3.20;52.00;;;;;;5092859;28;20287;-57
2022/03/02 02:11:43;;;;;;;16.77;14.10;;;3.00;52.10;;;;;;5092872;28;20203;-57
2022/03/02 02:14:09;;;;;;;17.33;13.55;;;2.90;52.90;;;;;;5092813;28;20287;-57
2022/03/02 02:16:36;;;;;;;14.27;12.85;;;2.80;53.60;;;;;;5092466;28;20236;-57
2022/03/02 02:19:05;;;;;;;17.48;14.07;;;2.70;53.70;;;;;;5092719;28;20726;-57
2022/03/02 02:21:33;;;;;;;14.80;13.25;;;2.50;54.30;;;;;;5093274;28;20191;-57
2022/03/02 02:24:00;;;;;;;17.80;14.50;;;2.50;54.00;;;;;;5092532;28;20261;-57
2022/03/02 02:26:27;;;;;;;14.52;13.00;;;2.60;53.50;;;;;;5092738;28;20208;-57
2022/03/02 02:28:55;;;;;;;15.48;13.82;;;2.60;53.40;;;;;;5092490;28;20199;-57
2022/03/02 02:31:23;;;;;;;14.48;13.07;;;2.60;54.00;;;;;;5092570;28;20295;-57
2022/03/02 02:33:51;;;;;;;16.23;13.45;;;2.60;53.70;;;;;;5092584;28;20282;-57
2022/03/02 02:36:19;;;;;;;17.85;13.93;;;2.60;53.70;;;;;;5091257;28;20228;-57
2022/03/02 02:38:48;;;;;;;18.52;14.00;;;2.60;53.90;;;;;;5092362;28;20203;-57
2022/03/02 02:41:15;;;;;;;15.93;14.20;;;2.60;53.70;;;;;;5092470;28;20537;-57
2022/03/02 02:43:43;;;;;;;14.40;12.90;;;2.70;53.80;;;;;;5092469;28;20208;-57
2022/03/02 02:46:10;;;;;;;15.40;13.75;;;2.70;53.90;;;;;;5093260;28;20199;-57
2022/03/02 02:48:38;;;;;;;16.20;13.23;;;2.70;53.20;;;;;;5096526;28;20311;-57
2022/03/02 02:51:05;;;;;;;16.77;13.50;;;2.80;52.80;;;;;;5095291;28;20203;-57
2022/03/02 02:53:33;;;;;;;16.13;14.40;;;2.80;52.90;;;;;;5096515;28;20200;-57
2022/03/02 02:56:01;;;;;;;21.63;14.93;;;2.70;52.90;;;;;;5096308;28;20318;-57
2022/03/02 02:58:28;;;;;;;16.17;14.50;;;2.60;53.10;;;;;;5096386;28;20674;-57
2022/03/02 03:00:55;;;;;;;18.52;14.77;;;2.60;53.10;;;;;;5096189;28;20577;-57
2022/03/02 03:03:22;;;;;;;15.35;13.75;;;2.60;53.20;;;;;;5096146;28;20328;-57
2022/03/02 03:05:51;;;;;;;18.20;15.52;;;2.60;54.00;;;;;;5094926;28;20295;-57
2022/03/02 03:08:18;;;;;;;17.95;14.18;;;2.60;53.80;;;;;;5096063;28;20222;-57
2022/03/02 03:10:47;;;;;;;19.75;15.52;;;2.70;54.50;;;;;;5095942;28;20647;-57
2022/03/02 03:13:16;;;;;;;15.90;14.30;;;2.60;55.30;;;;;;5096037;28;20226;-57
2022/03/02 03:15:43;;;;;;;16.50;14.85;;;2.40;55.50;;;;;;5096041;28;20224;-57
2022/03/02 03:18:10;;;;;;;17.33;15.63;;;2.20;56.00;;;;;;5096035;28;20302;-57
2022/03/02 03:20:38;;;;;;;17.98;16.02;;;2.10;56.40;;;;;;5094811;28;20253;-57
2022/03/02 03:23:07;;;;;;;17.20;14.40;;;1.80;57.40;;;;;;5095956;28;20200;-56
2022/03/02 03:25:34;;;;;;;16.35;14.70;;;1.60;58.10;;;;;;5095682;28;20200;-57
2022/03/02 03:28:02;;;;;;;16.75;14.30;;;1.50;58.80;;;;;;5095769;28;20210;-57
2022/03/02 03:30:31;;;;;;;19.35;15.45;;;1.40;58.80;;;;;;5095906;28;20220;-57
2022/03/02 03:32:58;;;;;;;19.58;16.08;;;1.30;59.10;;;;;;5095804;28;20205;-57
2022/03/02 03:35:27;;;;;;;18.00;14.05;;;1.10;59.90;;;;;;5094170;28;20221;-57
2022/03/02 03:37:54;;;;;;;17.20;15.40;;;1.00;60.60;;;;;;5095559;28;20200;-57
2022/03/02 03:40:22;;;;;;;17.00;14.90;;;0.90;60.80;;;;;;5095475;28;20210;-57
2022/03/02 03:42:50;;;;;;;16.58;14.30;;;0.90;60.80;;;;;;5095743;28;20200;-57
2022/03/02 03:45:17;;;;;;;17.00;15.27;;;0.90;60.90;;;;;;5095577;28;20200;-57
2022/03/02 03:47:46;;;;;;;18.33;14.80;;;1.10;59.80;;;;;;5095497;28;20297;-57
2022/03/02 03:50:13;;;;;;;15.70;13.80;;;1.30;59.50;;;;;;5094216;28;20211;-57
2022/03/02 03:52:40;;;;;;;16.45;14.85;;;1.50;58.30;;;;;;5095345;28;20699;-57
2022/03/02 03:55:09;;;;;;;16.95;14.35;;;1.70;57.10;;;;;;5095204;28;20205;-57
2022/03/02 03:57:36;;;;;;;16.92;14.48;;;1.90;56.40;;;;;;5094149;28;20232;-57
2022/03/02 04:00:06;;;;;;;18.73;14.13;;;2.10;55.70;;;;;;5095039;28;20204;-57
2022/03/02 04:02:33;;;;;;;14.88;13.38;;;2.20;55.40;;;;;;5095166;28;20232;-57
2022/03/02 04:05:01;;;;;;;14.52;13.02;;;2.30;55.10;;;;;;5093611;28;20236;-58
2022/03/02 04:07:28;;;;;;;14.85;13.32;;;2.40;54.70;;;;;;5095043;28;20235;-57
2022/03/02 04:09:55;;;;;;;16.65;12.30;;;2.50;54.20;;;;;;5094903;28;20203;-57
2022/03/02 04:12:22;;;;;;;14.93;11.50;;;2.50;53.90;;;;;;5094967;28;20249;-57
2022/03/02 04:14:49;;;;;;;18.58;12.45;;;2.60;53.80;;;;;;5095119;28;20299;-57
2022/03/02 04:17:16;;;;;;;14.65;12.80;;;2.60;53.60;;;;;;5094957;28;20235;-56
2022/03/02 04:19:42;;;;;;;17.17;14.30;;;2.60;53.70;;;;;;5094791;28;20883;-56
2022/03/02 04:22:11;;;;;;;17.50;14.57;;;2.60;53.70;;;;;;5095047;28;20534;-57
2022/03/02 04:24:38;;;;;;;16.67;14.60;;;2.60;53.70;;;;;;5094709;28;20210;-57
2022/03/02 04:27:06;;;;;;;18.85;14.60;;;2.50;53.80;;;;;;5094723;28;20204;-56
2022/03/02 04:29:33;;;;;;;17.58;14.25;;;2.50;54.00;;;;;;5094674;28;20227;-57
2022/03/02 04:32:00;;;;;;;16.52;13.55;;;2.40;54.20;;;;;;5094513;28;20611;-57
2022/03/02 04:34:26;;;;;;;18.05;16.17;;;2.40;54.50;;;;;;5094474;28;20569;-56
2022/03/02 04:36:54;;;;;;;18.40;14.05;;;2.30;54.80;;;;;;5093139;28;20239;-57
2022/03/02 04:39:22;;;;;;;20.35;13.80;;;2.20;55.20;;;;;;5094500;28;20278;-57
2022/03/02 04:41:49;;;;;;;18.10;14.52;;;2.10;55.50;;;;;;5094373;28;20265;-57
2022/03/02 04:44:16;;;;;;;19.63;16.10;;;2.00;55.80;;;;;;5094304;28;20624;-57
2022/03/02 04:46:48;;;;;;;17.00;13.98;;;1.80;56.40;;;;;;5094202;28;20319;-57
2022/03/02 04:49:18;;;;;;;19.75;15.13;;;1.80;56.70;;;;;;5094298;28;20223;-56
2022/03/02 04:51:45;;;;;;;19.67;16.30;;;1.70;57.10;;;;;;5092917;28;20234;-57
2022/03/02 04:55:05;;;;;;;18.15;16.20;;;1.70;57.40;;;;;;5094148;28;20215;-56
2022/03/02 04:57:01;;;;;;;17.77;15.10;;;1.70;57.30;;;;;;5093852;28;20232;-57
2022/03/02 04:59:28;;;;;;;20.38;14.90;;;1.70;57.40;;;;;;5093825;28;20220;-56
2022/03/02 05:01:56;;;;;;;20.63;15.10;;;1.70;57.50;;;;;;5093916;28;20594;-56
2022/03/02 05:04:23;;;;;;;17.90;15.65;;;1.70;57.40;;;;;;5093924;28;20259;-57
2022/03/02 05:06:49;;;;;;;21.95;15.98;;;1.70;57.30;;;;;;5092487;28;20673;-57
2022/03/02 05:09:16;;;;;;;22.45;14.68;;;1.70;57.30;;;;;;5093702;28;20295;-56
2022/03/02 05:11:43;;;;;;;19.80;15.07;;;1.80;57.00;;;;;;5093413;28;20657;-56
2022/03/02 05:14:11;;;;;;;16.10;12.82;;;1.80;57.00;;;;;;5093803;28;20212;-56
2022/03/02 05:16:38;;;;;;;20.13;14.00;;;1.80;58.10;;;;;;5093794;28;20621;-57
2022/03/02 05:19:05;;;;;;;17.10;15.18;;;1.50;59.50;;;;;;5093802;28;20563;-57
2022/03/02 05:21:32;;;;;;;19.60;15.55;;;1.40;59.90;;;;;;5092417;28;20250;-56
2022/03/02 05:23:59;;;;;;;20.30;15.93;;;1.20;60.70;;;;;;5093487;28;20264;-57
2022/03/02 05:26:26;;;;;;;18.52;15.48;;;1.10;61.20;;;;;;5093271;28;20226;-57
2022/03/02 05:28:53;;;;;;;20.88;16.10;;;0.90;62.30;;;;;;5093570;28;20287;-56
2022/03/02 05:31:23;;;;;;;20.50;15.45;;;0.70;63.20;;;;;;5093553;28;20214;-56
2022/03/02 05:33:51;;;;;;;17.17;14.23;;;0.60;63.90;;;;;;5093348;28;20261;-57
2022/03/02 05:36:18;;;;;;;23.00;15.23;;;0.50;64.20;;;;;;5092052;28;20232;-56
2022/03/02 05:38:45;;;;;;;19.02;15.05;;;0.50;64.50;;;;;;5093282;28;20203;-57
2022/03/02 05:41:12;;;;;;;17.38;15.55;;;0.50;64.60;;;;;;5093076;28;20231;-56
2022/03/02 05:43:39;;;;;;;16.90;12.70;;;0.50;64.70;;;;;;5093200;28;20196;-57
2022/03/02 05:46:06;;;;;;;17.00;14.20;;;0.60;64.00;;;;;;5093076;28;20736;-56
2022/03/02 05:48:34;;;;;;;18.67;13.02;;;0.70;63.20;;;;;;5093128;28;20211;-56
2022/03/02 05:51:01;;;;;;;18.83;14.20;;;0.80;63.20;;;;;;5091858;28;20294;-56
2022/03/02 05:53:28;;;;;;;16.95;15.25;;;1.00;62.00;;;;;;5092977;28;20461;-56
2022/03/02 05:55:55;;;;;;;20.17;17.00;;;1.10;61.30;;;;;;5092858;28;20209;-56
2022/03/02 05:58:22;;;;;;;19.75;15.10;;;1.20;61.10;;;;;;5092911;28;20210;-56
2022/03/02 06:00:49;;;;;;;19.30;15.13;;;1.30;60.60;;;;;;5092848;28;20211;-56
2022/03/02 06:03:16;;;;;;;19.48;15.73;;;1.20;61.10;;;;;;5092697;28;20642;-56
2022/03/02 06:05:44;;;;;;;16.80;14.35;;;1.30;60.60;;;;;;5091669;28;20204;-56
2022/03/02 06:08:11;;;;;;;18.20;13.75;;;1.30;61.20;;;;;;5092673;28;20277;-56
2022/03/02 06:10:38;;;;;;;18.98;16.27;;;1.20;61.60;;;;;;5092576;28;20235;-55
2022/03/02 06:13:07;;;;;;;20.88;15.25;;;1.10;62.00;;;;;;5092691;28;20196;-56
2022/03/02 06:15:35;;;;;;;19.33;15.73;;;1.00;63.20;;;;;;5092732;28;20204;-56
2022/03/02 06:18:03;;;;;;;20.02;15.52;;;1.10;63.00;;;;;;5092498;28;20227;-56
2022/03/02 06:20:30;;;;;;;18.67;15.60;;;1.20;62.50;;;;;;5090674;28;20209;-56
2022/03/02 06:22:59;;;;;;;18.08;16.05;;;1.30;61.50;;;;;;5093002;28;20496;-57
2022/03/02 06:25:27;;;;;;;17.50;14.50;;;1.50;62.10;;;;;;5092234;28;20223;-56
2022/03/02 06:27:54;;;;;;;17.35;14.85;;;1.70;61.30;;;;;;5092509;28;20210;-56
2022/03/02 06:30:21;;;;;;;17.83;15.88;;;1.90;61.40;;;;;;5092400;28;20298;-57
2022/03/02 06:32:48;;;;;;;18.10;14.20;;;2.00;60.80;;;;;;5092452;28;20204;-56
2022/03/02 06:35:15;;;;;;;18.48;15.23;;;2.10;60.10;;;;;;5091142;28;20734;-56
2022/03/02 06:37:42;;;;;;;17.73;14.75;;;2.10;59.70;;;;;;5092416;28;20232;-56
2022/03/02 06:40:13;;;;;;;19.02;14.57;;;2.10;59.60;;;;;;5092396;28;20214;-56
2022/03/02 06:43:00;;;;;;;20.05;15.25;;;2.10;60.00;;;;;;5092604;28;20200;-57
2022/03/02 06:45:35;;;;;;;21.13;16.38;;;2.20;59.50;;;;;;5092613;28;20219;-56
2022/03/02 06:48:12;;;;;;;17.85;14.38;;;2.30;59.10;;;;;;5092624;28;20216;-56
2022/03/02 06:50:43;;;;;;;18.63;16.63;;;2.40;59.80;;;;;;5091451;28;20219;-56
2022/03/02 06:53:13;;;;;;;17.85;15.60;;;2.50;58.90;;;;;;5092330;28;20232;-57
2022/03/02 06:55:43;;;;;;;16.95;14.52;;;2.60;58.90;;;;;;5092249;28;20655;-56
2022/03/02 06:58:11;;;;;;;19.23;15.32;;;2.70;58.90;;;;;;5092381;28;20270;-56
2022/03/02 07:00:38;;;;;;;15.88;14.13;;;2.60;58.40;;;;;;5092518;28;20215;-57
2022/03/02 07:03:07;;;;;;;18.23;16.42;;;2.50;56.90;;;;;;5092318;28;20231;-56
2022/03/02 07:05:34;;;;;;;18.13;15.32;;;2.50;57.90;;;;;;5091095;28;20295;-57
2022/03/02 07:08:03;;;;;;;20.02;14.85;;;2.60;58.40;;;;;;5092416;28;20204;-56
2022/03/02 07:10:33;;;;;;;18.50;14.88;;;2.70;58.60;;;;;;5092210;28;20663;-56
2022/03/02 07:13:02;;;;;;;17.20;15.45;;;2.70;58.50;;;;;;5092169;28;20201;-57
2022/03/02 07:15:29;;;;;;;19.17;14.70;;;2.70;58.30;;;;;;5092307;28;20589;-57
2022/03/02 07:17:59;;;;;;;16.60;14.07;;;2.80;57.10;;;;;;5092298;28;20327;-56
2022/03/02 07:20:27;;;;;;;19.10;14.95;;;2.90;56.90;;;;;;5091115;28;20210;-56
2022/03/02 07:22:56;;;;;;;16.33;14.45;;;2.90;56.90;;;;;;5092277;28;20206;-56
2022/03/02 07:25:27;;;;;;;16.52;14.48;;;2.90;56.40;;;;;;5091961;28;20235;-56
2022/03/02 07:27:56;;;;;;;19.42;15.98;;;3.00;57.30;;;;;;5092283;28;20257;-57
2022/03/02 07:30:25;;;;;;;18.30;15.98;;;2.90;55.60;;;;;;5092156;28;20231;-56
2022/03/02 07:32:56;;;;;;;18.98;15.70;;;2.60;56.00;;;;;;5094043;28;20291;-57
2022/03/02 07:35:25;;;;;;;20.30;17.83;;;2.60;56.20;;;;;;5094569;28;20306;-56
2022/03/02 07:37:55;;;;;;;17.35;15.48;;;2.50;56.30;;;;;;5095522;28;20725;-57
2022/03/02 07:40:21;;;;;;;20.63;16.20;;;2.60;56.10;;;;;;5095535;28;20208;-57
2022/03/02 07:42:50;;;;;;;18.48;15.68;;;2.50;56.60;;;;;;5095916;28;20231;-56
2022/03/02 07:45:17;;;;;;;17.77;15.80;;;2.50;58.60;;;;;;5095480;28;20220;-57
2022/03/02 07:47:47;;;;;;;19.75;14.43;;;2.50;59.00;;;;;;5095543;28;20207;-56
2022/03/02 07:50:15;;;;;;;17.55;14.25;;;2.40;57.80;;;;;;5094371;28;20231;-56
2022/03/02 07:52:48;;;;;;;18.90;15.18;;;2.50;58.00;;;;;;5095595;28;20214;-57
2022/03/02 07:55:17;;;;;;;21.05;16.92;;;2.70;57.60;;;;;;5095257;28;20200;-56
2022/03/02 07:57:45;;;;;;;22.10;14.35;;;2.70;57.50;;;;;;5095311;28;20220;-57
2022/03/02 08:00:13;;;;;;;17.55;15.20;;;2.90;56.60;;;;;;5095324;28;20295;-56
2022/03/02 08:02:41;;;;;;;20.98;15.60;;;3.10;56.40;;;;;;5095164;28;20296;-56
2022/03/02 08:05:11;;;;;;;17.30;15.60;;;3.30;55.80;;;;;;5094076;28;20764;-56
2022/03/02 08:07:39;;;;;;;20.52;15.77;;;3.50;55.40;;;;;;5095195;28;20196;-56
2022/03/02 08:10:07;;;;;;;15.20;13.60;;;3.70;54.10;;;;;;5095099;28;20743;-56
2022/03/02 08:12:34;;;;;;;20.75;16.58;;;3.80;53.90;;;;;;5095301;28;20261;-56
2022/03/02 08:15:03;;;;;;;21.27;16.27;;;3.80;54.40;;;;;;5095098;28;20295;-56
2022/03/02 08:17:30;;;;;;;23.60;16.20;;;3.90;55.10;;;;;;5095037;28;20599;-56
2022/03/02 08:19:57;;;;;;;21.05;15.23;;;4.00;55.40;;;;;;5095045;28;20635;-56
2022/03/02 08:22:25;;;;;;;21.45;16.73;;;3.90;55.40;;;;;;5094920;28;20716;-56
2022/03/02 08:24:57;;;;;;;18.48;14.70;;;3.80;55.70;;;;;;5094964;28;20291;-56
2022/03/02 08:27:24;;;;;;;20.75;15.55;;;3.90;55.00;;;;;;5094708;28;20231;-56
2022/03/02 08:29:56;;;;;;;17.50;14.98;;;4.10;54.40;;;;;;5094877;28;20214;-56
2022/03/02 08:32:24;;;;;;;20.83;15.35;;;4.20;54.30;;;;;;5094806;28;20206;-56
2022/03/02 08:34:51;;;;;;;19.83;17.75;;;4.00;54.80;;;;;;5093309;28;20200;-56
2022/03/02 08:37:19;;;;;;;18.52;16.50;;;3.80;54.90;;;;;;5094669;28;20312;-56
2022/03/02 08:39:48;;;;;;;21.70;16.88;;;3.60;57.00;;;;;;5094810;28;20561;-56
2022/03/02 08:42:16;;;;;;;22.75;17.80;;;3.60;57.90;;;;;;5094402;28;20573;-57
2022/03/02 08:44:46;;;;;;;22.80;18.55;;;3.70;57.40;;;;;;5093820;28;20230;-56
2022/03/02 08:47:13;;;;;;;22.27;17.33;;;3.80;57.40;;;;;;5094466;28;20655;-56
2022/03/02 08:49:40;;;;;;;25.90;17.85;;;3.90;57.70;;;;;;5093673;28;20630;-56
2022/03/02 08:52:07;;;;;;;21.40;17.13;;;4.00;55.80;;;;;;5094357;28;20206;-56
2022/03/02 08:54:41;;;;;;;20.75;16.92;;;4.10;55.80;;;;;;5094325;28;20202;-56
2022/03/02 08:57:10;;;;;;;20.92;18.73;;;4.20;57.60;;;;;;5093902;28;20214;-56
2022/03/02 08:59:39;;;;;;;25.60;19.23;;;4.10;57.70;;;;;;5094218;28;20203;-56
2022/03/02 09:02:08;;;;;;;29.90;19.20;;;4.10;57.00;;;;;;5094312;28;20303;-56
2022/03/02 09:04:36;;;;;;;23.92;17.38;;;4.10;58.30;;;;;;5094146;28;20312;-56
2022/03/02 09:07:05;;;;;;;25.35;18.88;;;4.00;59.50;;;;;;5093442;28;20663;-56
2022/03/02 09:09:33;;;;;;;21.00;15.38;;;3.90;59.10;;;;;;5069714;28;20207;-55
2022/03/02 09:12:00;;;;;;;19.65;17.55;;;4.00;58.50;;;;;;5072932;28;20223;-56
2022/03/02 09:14:28;;;;;;;25.95;18.23;;;4.10;60.20;;;;;;5073002;28;20196;-56
2022/03/02 09:16:55;;;;;;;23.63;18.38;;;4.10;59.70;;;;;;5072823;28;20204;-55
2022/03/02 09:19:22;;;;;;;22.08;18.60;;;4.10;58.50;;;;;;5072953;28;20240;-55
2022/03/02 09:21:49;;;;;;;24.55;18.77;;;4.30;58.80;;;;;;5071618;28;20562;-56
2022/03/02 09:24:16;;;;;;;19.40;17.05;;;4.40;57.40;;;;;;5072555;28;20204;-56
2022/03/02 09:26:44;;;;;;;23.45;17.95;;;4.50;57.30;;;;;;5072555;28;20201;-56
2022/03/02 09:29:11;;;;;;;24.35;17.70;;;4.40;58.20;;;;;;5072851;28;20258;-56
2022/03/02 09:31:41;;;;;;;21.92;16.63;;;4.40;58.30;;;;;;5093013;28;20200;-56
2022/03/02 09:34:10;;;;;;;21.50;17.55;;;4.20;57.20;;;;;;5092896;28;20204;-56
2022/03/02 09:36:38;;;;;;;22.60;16.13;;;4.30;58.00;;;;;;5091477;28;20222;-55
2022/03/02 09:39:08;;;;;;;19.48;15.23;;;4.60;57.50;;;;;;5092903;28;20238;-56
2022/03/02 09:41:49;;;;;;;20.52;15.20;;;4.70;53.80;;;;;;5093349;28;20238;-56
2022/03/02 09:44:19;;;;;;;18.50;15.75;;;4.60;51.30;;;;;;5093398;28;20199;-55
2022/03/02 09:46:51;;;;;;;24.42;17.92;;;4.50;53.40;;;;;;5093465;28;20236;-54
2022/03/02 09:49:22;;;;;;;17.70;14.55;;;4.70;52.80;;;;;;5093268;28;20749;-55
2022/03/02 09:51:53;;;;;;;17.75;16.05;;;4.90;53.70;;;;;;5092033;28;20245;-55
2022/03/02 09:54:22;;;;;;;21.67;17.35;;;5.20;53.80;;;;;;5093351;28;20206;-56
2022/03/02 09:56:51;;;;;;;18.17;15.82;;;5.20;53.60;;;;;;5092255;28;20210;-55
2022/03/02 09:59:18;;;;;;;17.15;15.35;;;5.40;52.10;;;;;;5093069;28;20706;-56
2022/03/02 10:01:48;;;;;;;18.05;15.88;;;5.50;52.50;;;;;;5092844;28;20200;-55
2022/03/02 10:04:22;;;;;;;18.17;15.70;;;5.50;50.00;;;;;;5092958;28;20236;-55
2022/03/02 10:06:51;;;;;;;20.60;16.75;;;5.40;49.80;;;;;;5091792;28;20215;-55
2022/03/02 10:09:22;;;;;;;18.05;15.85;;;5.40;52.10;;;;;;5093131;28;20211;-55
2022/03/02 10:11:50;;;;;;;20.92;17.70;;;5.50;52.10;;;;;;5092810;28;20216;-55
2022/03/02 10:14:19;;;;;;;20.80;17.92;;;5.40;51.80;;;;;;5092730;28;20313;-55
2022/03/02 10:16:47;;;;;;;20.42;17.92;;;5.30;52.50;;;;;;5092928;28;20203;-55
2022/03/02 10:19:23;;;;;;;20.20;17.10;;;5.40;53.10;;;;;;5092844;28;20319;-55
2022/03/02 10:22:06;;;;;;;19.00;16.90;;;5.70;53.30;;;;;;5092230;28;20662;-56
2022/03/02 10:24:44;;;;;;;19.30;15.05;;;6.00;51.70;;;;;;5092907;28;20210;-56
2022/03/02 10:27:22;;;;;;;18.80;16.40;;;6.20;51.60;;;;;;5092719;28;20212;-55
2022/03/02 10:30:03;;;;;;;25.33;18.48;;;6.30;50.60;;;;;;5092681;28;20676;-55
2022/03/02 10:32:35;;;;;;;18.80;15.48;;;6.30;50.80;;;;;;5092867;28;20682;-55
2022/03/02 10:35:07;;;;;;;18.65;16.48;;;6.40;51.00;;;;;;5091376;28;20212;-55
2022/03/02 10:37:36;;;;;;;17.70;15.85;;;6.40;48.50;;;;;;5092514;28;20235;-56
2022/03/02 10:40:12;;;;;;;18.48;16.30;;;6.30;49.40;;;;;;5092587;28;20247;-56
2022/03/02 10:42:42;;;;;;;19.00;16.38;;;6.20;49.30;;;;;;5092449;28;20277;-56
2022/03/02 10:45:18;;;;;;;21.58;16.65;;;6.20;50.10;;;;;;5092494;28;20200;-56
2022/03/02 10:47:55;;;;;;;19.98;16.25;;;6.20;49.80;;;;;;5092456;28;20302;-55
2022/03/02 10:50:25;;;;;;;17.45;15.52;;;6.30;49.40;;;;;;5091097;28;20693;-56
2022/03/02 10:52:55;;;;;;;19.77;16.17;;;6.50;50.20;;;;;;5092643;28;20291;-56
2022/03/02 10:55:22;;;;;;;18.65;15.38;;;6.50;49.30;;;;;;5092635;28;20238;-56
2022/03/02 10:57:51;;;;;;;23.17;16.20;;;6.50;49.20;;;;;;5092269;28;20231;-56
2022/03/02 11:00:20;;;;;;;17.35;15.68;;;6.80;50.00;;;;;;5092320;28;20561;-55
2022/03/02 11:02:48;;;;;;;17.90;14.63;;;7.10;48.70;;;;;;5092419;28;20291;-56
2022/03/02 11:05:18;;;;;;;16.88;15.25;;;7.20;46.90;;;;;;5091166;28;20215;-56
2022/03/02 11:07:47;;;;;;;19.95;17.58;;;7.20;48.60;;;;;;5094245;28;20624;-56
2022/03/02 11:10:17;;;;;;;19.92;17.00;;;7.50;49.50;;;;;;5096448;28;20200;-56
2022/03/02 11:12:45;;;;;;;19.98;17.88;;;7.70;49.20;;;;;;5096089;28;20200;-56
2022/03/02 11:15:14;;;;;;;22.75;18.40;;;7.90;48.70;;;;;;5096287;28;20204;-55
2022/03/02 11:17:58;;;;;;;23.52;18.80;;;8.10;48.80;;;;;;5096207;28;20208;-55
2022/03/02 11:20:27;;;;;;;20.13;16.40;;;8.30;48.70;;;;;;5094968;28;20200;-56
2022/03/02 11:22:59;;;;;;;21.02;17.77;;;8.50;48.30;;;;;;5096751;28;20235;-57
2022/03/02 11:25:44;;;;;;;21.17;18.88;;;8.60;48.00;;;;;;5096153;28;20211;-55
2022/03/02 11:28:16;;;;;;;21.77;19.50;;;8.70;47.70;;;;;;5096105;28;20303;-56
2022/03/02 11:30:48;;;;;;;22.52;18.70;;;8.80;46.70;;;;;;5096057;28;20204;-56
2022/03/02 11:33:16;;;;;;;22.20;19.08;;;8.90;47.30;;;;;;5095999;28;20219;-56
2022/03/02 11:35:46;;;;;;;26.02;19.45;;;9.00;47.30;;;;;;5094520;28;20200;-57
2022/03/02 11:38:21;;;;;;;24.08;19.08;;;9.30;46.50;;;;;;5095810;28;20314;-57
2022/03/02 11:40:49;;;;;;;22.05;19.00;;;9.40;46.10;;;;;;5095686;28;20658;-56
2022/03/02 11:43:18;;;;;;;22.17;19.38;;;9.60;46.00;;;;;;5095806;28;20204;-58
2022/03/02 11:45:45;;;;;;;24.10;19.85;;;9.60;46.00;;;;;;5095799;28;20222;-57
2022/03/02 11:48:13;;;;;;;23.13;19.60;;;9.70;46.10;;;;;;5095628;28;20299;-56
2022/03/02 11:51:04;;;;;;;21.60;19.30;;;9.60;45.20;;;;;;5094426;28;20200;-57
2022/03/02 11:53:35;;;;;;;23.63;19.35;;;9.30;46.50;;;;;;5095575;28;20200;-57
2022/03/02 11:56:03;;;;;;;22.65;18.80;;;9.40;46.80;;;;;;5095389;28;20208;-57
2022/03/02 11:58:54;;;;;;;20.88;18.35;;;9.40;46.00;;;;;;5095438;28;20639;-57
2022/03/02 12:01:22;;;;;;;22.15;18.95;;;9.50;46.20;;;;;;5095382;28;20226;-57
2022/03/02 12:04:00;;;;;;;21.65;17.10;;;9.60;46.30;;;;;;5095201;28;20232;-57
2022/03/02 12:06:28;;;;;;;21.40;18.92;;;9.70;45.60;;;;;;5093909;28;20200;-57
2022/03/02 12:08:57;;;;;;;26.63;18.60;;;9.50;46.80;;;;;;5095161;28;20200;-57
2022/03/02 12:11:25;;;;;;;20.70;18.50;;;9.70;46.20;;;;;;5095171;28;20211;-57
2022/03/02 12:14:05;;;;;;;28.08;19.17;;;9.90;46.00;;;;;;5095128;28;20208;-57
2022/03/02 12:16:40;;;;;;;20.02;17.90;;;10.20;45.50;;;;;;5095188;28;20208;-57
2022/03/02 12:19:20;;;;;;;20.10;17.08;;;10.40;45.00;;;;;;5094528;28;20238;-56
2022/03/02 12:21:48;;;;;;;22.00;18.35;;;10.40;44.10;;;;;;5093680;28;20682;-57
2022/03/02 12:24:19;;;;;;;23.52;18.70;;;10.60;43.60;;;;;;5094886;28;20535;-57
2022/03/02 12:26:49;;;;;;;23.65;18.58;;;10.70;43.70;;;;;;5094631;28;20204;-56
2022/03/02 12:29:17;;;;;;;21.65;19.15;;;10.70;43.10;;;;;;5094777;28;20204;-56
2022/03/02 12:31:47;;;;;;;19.83;17.73;;;10.80;42.20;;;;;;5094897;28;20207;-57
2022/03/02 12:34:14;;;;;;;20.75;18.38;;;10.70;42.60;;;;;;5094622;28;20670;-56
2022/03/02 12:36:42;;;;;;;24.08;20.08;;;10.70;43.40;;;;;;5093328;28;20293;-56
2022/03/02 12:39:09;;;;;;;24.20;19.45;;;10.60;42.50;;;;;;5094457;28;20576;-56
2022/03/02 12:41:37;;;;;;;22.17;17.38;;;10.50;42.80;;;;;;5094410;28;20210;-56
2022/03/02 12:44:05;;;;;;;23.70;19.23;;;10.50;43.30;;;;;;5094473;28;20226;-56